Time;durP1;ratioP1;P1;durP2;ratioP2;P2;SDS_P1;SDS_P2;PMS_P1;PMS_P2;Temp;Humidity;BMP_temperature;BMP_pressure;BME280_temperature;BME280_humidity;BME280_pressure;Samples;Min_cycle;Max_cycle;Signal;HPM_P1;HPM_P2
2024/01/05 00:01:44;;;;;;;0.40;0.38;;;;;;;6.55;85.88;98839.44;5096448;28;20065;-66
2024/01/05 00:04:13;;;;;;;0.30;0.30;;;;;;;6.59;85.60;98836.06;5096460;28;20048;-67
2024/01/05 00:06:41;;;;;;;0.40;0.40;;;;;;;6.61;84.82;98842.81;5096410;28;20048;-67
2024/01/05 00:09:13;;;;;;;0.30;0.30;;;;;;;6.59;85.12;98844.53;5096589;28;20052;-66
2024/01/05 00:11:41;;;;;;;0.40;0.40;;;;;;;6.55;84.70;98847.88;5096521;28;20405;-67
2024/01/05 00:14:10;;;;;;;0.30;0.30;;;;;;;6.49;85.30;98858.00;5096201;28;20494;-66
2024/01/05 00:16:39;;;;;;;0.20;0.20;;;;;;;6.45;85.49;98856.31;5096402;28;20046;-66
2024/01/05 00:19:08;;;;;;;0.32;0.32;;;;;;;6.41;85.81;98859.69;5095163;28;20151;-65
2024/01/05 00:21:38;;;;;;;0.30;0.30;;;;;;;6.43;85.64;98857.16;5096203;28;20043;-66
2024/01/05 00:24:07;;;;;;;0.40;0.40;;;;;;;6.43;85.57;98864.75;5096561;28;20109;-67
2024/01/05 00:26:41;;;;;;;0.30;0.30;;;;;;;6.40;86.05;98865.59;5096288;28;20090;-67
2024/01/05 00:29:11;;;;;;;0.30;0.30;;;;;;;6.42;85.89;98876.59;5096525;28;20490;-66
2024/01/05 00:31:39;;;;;;;0.60;0.60;;;;;;;6.42;86.74;98880.81;5096197;28;20032;-67
2024/01/05 00:34:08;;;;;;;0.40;0.40;;;;;;;6.41;85.99;98879.94;5096008;28;20047;-66
2024/01/05 00:36:37;;;;;;;0.40;0.40;;;;;;;6.39;86.27;98876.56;5096032;28;20126;-66
2024/01/05 00:39:06;;;;;;;0.40;0.40;;;;;;;6.32;86.61;98879.94;5096326;28;20040;-67
2024/01/05 00:41:37;;;;;;;0.40;0.40;;;;;;;6.25;86.51;98880.75;5095654;28;20051;-66
2024/01/05 00:44:05;;;;;;;0.40;0.40;;;;;;;6.21;86.62;98889.19;5095953;28;20105;-66
2024/01/05 00:46:39;;;;;;;0.50;0.50;;;;;;;6.21;87.17;98896.78;5095548;28;20140;-65
2024/01/05 00:49:08;;;;;;;0.60;0.60;;;;;;;6.13;87.01;98888.31;5095863;28;20371;-66
2024/01/05 00:51:37;;;;;;;0.40;0.40;;;;;;;5.96;87.10;98875.56;5095481;28;20050;-66
2024/01/05 00:54:07;;;;;;;0.40;0.40;;;;;;;5.92;87.38;98893.28;5094146;28;20068;-66
2024/01/05 00:56:37;;;;;;;0.30;0.30;;;;;;;5.84;87.35;98893.22;5095693;28;20036;-66
2024/01/05 00:59:06;;;;;;;0.28;0.28;;;;;;;5.78;87.40;98887.25;5094829;28;20158;-66
2024/01/05 01:01:34;;;;;;;0.30;0.30;;;;;;;5.71;87.25;98888.06;5095159;28;20051;-66
2024/01/05 01:04:04;;;;;;;0.30;0.30;;;;;;;5.63;87.54;98888.03;5095058;28;20312;-66
2024/01/05 01:06:33;;;;;;;0.40;0.40;;;;;;;5.57;87.60;98889.66;5095717;28;20798;-67
2024/01/05 01:09:02;;;;;;;0.85;0.85;;;;;;;5.53;87.42;98887.94;5094127;28;20097;-65
2024/01/05 01:11:31;;;;;;;0.50;0.50;;;;;;;5.51;87.23;98898.06;5095266;28;20067;-66
2024/01/05 01:14:01;;;;;;;0.47;0.47;;;;;;;5.33;87.47;98881.06;5095532;28;20382;-66
2024/01/05 01:16:31;;;;;;;0.40;0.40;;;;;;;5.51;88.07;98909.88;5095639;28;20044;-67
2024/01/05 01:19:00;;;;;;;0.47;0.47;;;;;;;5.51;87.51;98905.66;5094971;28;20056;-66
2024/01/05 01:21:29;;;;;;;0.40;0.40;;;;;;;5.51;87.70;98909.88;5095096;28;20148;-66
2024/01/05 01:23:58;;;;;;;0.50;0.50;;;;;;;5.51;87.73;98909.88;5095165;28;20032;-66
2024/01/05 01:26:27;;;;;;;0.50;0.50;;;;;;;5.48;87.78;98917.44;5094786;28;20040;-66
2024/01/05 01:28:56;;;;;;;0.50;0.50;;;;;;;5.53;87.72;98913.25;5094207;28;20067;-66
2024/01/05 01:31:28;;;;;;;0.30;0.30;;;;;;;5.57;87.89;98912.41;5095075;28;20089;-66
2024/01/05 01:33:57;;;;;;;0.40;0.40;;;;;;;5.64;88.01;98916.72;5095322;28;20088;-67
2024/01/05 01:36:26;;;;;;;0.40;0.40;;;;;;;5.63;87.61;98909.94;5094666;28;20066;-66
2024/01/05 01:38:55;;;;;;;0.60;0.60;;;;;;;5.63;87.44;98909.94;5095114;28;20031;-66
2024/01/05 01:41:24;;;;;;;0.40;0.40;;;;;;;5.63;87.79;98909.94;5093594;28;20136;-65
2024/01/05 01:43:53;;;;;;;0.30;0.30;;;;;;;5.57;87.24;98912.41;5094512;28;20055;-66
2024/01/05 01:46:23;;;;;;;0.40;0.40;;;;;;;5.54;87.89;98913.28;5094524;28;20075;-66
2024/01/05 01:48:53;;;;;;;0.52;0.52;;;;;;;5.54;87.64;98909.91;5094402;28;20429;-66
2024/01/05 01:51:23;;;;;;;0.40;0.40;;;;;;;5.53;87.88;98914.09;5094760;28;20051;-65
2024/01/05 01:53:53;;;;;;;0.30;0.30;;;;;;;5.51;88.06;98904.81;5094301;28;20044;-66
2024/01/05 01:56:22;;;;;;;;;;;;;;;5.52;88.41;98907.34;5094987;28;20134;-66
2024/01/05 01:58:51;;;;;;;0.40;0.40;;;;;;;5.50;87.67;98905.63;5094485;28;20324;-65
2024/01/05 02:01:20;;;;;;;0.40;0.40;;;;;;;5.47;88.00;98908.97;5076244;28;20040;-65
2024/01/05 02:03:49;;;;;;;0.30;0.30;;;;;;;5.48;88.63;98914.91;5094136;28;20052;-64
2024/01/05 02:06:20;;;;;;;0.60;0.60;;;;;;;5.35;88.37;98889.50;5094607;28;20316;-64
2024/01/05 02:08:51;;;;;;;2.03;1.90;;;;;;;5.53;88.34;98909.03;5094036;28;20052;-65
2024/01/05 02:11:20;;;;;;;1.58;1.05;;;;;;;5.53;88.05;98914.09;5094385;28;20044;-65
2024/01/05 02:13:49;;;;;;;0.93;0.70;;;;;;;5.54;88.09;98909.91;5094117;28;20111;-67
2024/01/05 02:16:18;;;;;;;0.43;0.43;;;;;;;5.43;87.99;98897.16;5094485;28;20043;-65
2024/01/05 02:19:07;;;;;;;0.40;0.40;;;;;;;5.60;87.85;98904.84;5093194;28;20498;-65
2024/01/05 02:21:41;;;;;;;0.40;0.40;;;;;;;5.63;88.14;98909.94;5094072;28;20032;-66
2024/01/05 02:24:11;;;;;;;1.08;0.98;;;;;;;5.66;87.55;98912.50;5094121;28;20547;-66
2024/01/05 02:26:40;;;;;;;0.57;0.57;;;;;;;5.67;87.69;98909.13;5094189;28;20048;-67
2024/01/05 02:29:10;;;;;;;1.65;1.38;;;;;;;5.64;88.09;98901.53;5094085;28;20039;-67
2024/01/05 02:31:39;;;;;;;1.25;1.05;;;;;;;5.64;88.07;98902.34;5094553;28;20421;-67
2024/01/05 02:34:08;;;;;;;0.30;0.30;;;;;;;5.69;88.14;98915.88;5093690;28;20486;-67
2024/01/05 02:36:37;;;;;;;0.25;0.25;;;;;;;5.70;87.63;98912.53;5093923;28;20405;-66
2024/01/05 02:39:05;;;;;;;0.30;0.30;;;;;;;5.65;87.72;98905.75;5093826;28;20116;-66
2024/01/05 02:41:36;;;;;;;0.30;0.30;;;;;;;5.66;87.76;98915.91;5093468;28;20050;-66
2024/01/05 02:44:05;;;;;;;0.30;0.30;;;;;;;5.68;87.70;98915.88;5093904;28;20319;-67
2024/01/05 02:46:35;;;;;;;0.75;0.75;;;;;;;5.68;87.72;98918.41;5093482;28;20131;-66
2024/01/05 02:49:04;;;;;;;0.40;0.40;;;;;;;5.62;88.06;98915.84;5094053;28;20040;-66
2024/01/05 02:51:33;;;;;;;5.93;0.80;;;;;;;5.68;88.00;98923.47;5093787;28;20064;-67
2024/01/05 02:54:02;;;;;;;0.65;0.65;;;;;;;5.69;87.62;98920.94;5093109;28;20471;-67
2024/01/05 02:56:33;;;;;;;0.30;0.30;;;;;;;5.72;88.01;98926.03;5092545;28;20086;-67
2024/01/05 02:59:05;;;;;;;0.20;0.20;;;;;;;5.61;87.65;98914.16;5092690;28;20428;-66
2024/01/05 03:01:34;;;;;;;0.50;0.50;;;;;;;5.59;87.59;98909.06;5093416;28;20066;-66
2024/01/05 03:04:02;;;;;;;0.50;0.50;;;;;;;5.73;87.64;98937.03;5093292;28;20051;-66
2024/01/05 03:06:31;;;;;;;2.95;1.45;;;;;;;5.78;87.91;98935.38;5093604;28;20707;-67
2024/01/05 03:09:01;;;;;;;2.07;1.23;;;;;;;5.76;88.16;98934.50;5093309;28;20044;-67
2024/01/05 03:11:29;;;;;;;0.30;0.30;;;;;;;5.78;87.57;98931.13;5093608;28;20040;-67
2024/01/05 03:13:58;;;;;;;0.63;0.63;;;;;;;5.78;88.09;98925.25;5093263;28;20055;-67
2024/01/05 03:16:28;;;;;;;0.40;0.40;;;;;;;5.79;87.69;98924.38;5093602;28;20039;-67
2024/01/05 03:18:57;;;;;;;0.30;0.30;;;;;;;5.76;87.64;98921.84;5093554;28;20048;-67
2024/01/05 03:21:27;;;;;;;0.37;0.37;;;;;;;5.72;87.65;98920.97;5093506;28;20150;-66
2024/01/05 03:23:56;;;;;;;;;;;;;;;5.71;88.26;98929.41;5096441;28;20052;-66
2024/01/05 03:26:24;;;;;;;0.30;0.30;;;;;;;5.63;87.85;98915.88;5097168;28;19993;-67
2024/01/05 03:28:53;;;;;;;0.30;0.30;;;;;;;5.68;88.10;98928.53;5097131;28;20070;-66
2024/01/05 03:31:24;;;;;;;0.30;0.30;;;;;;;5.65;87.84;98924.31;5097471;28;20277;-66
2024/01/05 03:33:55;;;;;;;0.30;0.30;;;;;;;5.64;87.92;98924.31;5097659;28;20062;-66
2024/01/05 03:36:24;;;;;;;0.40;0.40;;;;;;;5.63;87.79;98930.19;5095886;28;20071;-66
2024/01/05 03:38:53;;;;;;;0.30;0.30;;;;;;;5.60;87.84;98925.09;5097480;28;20032;-65
2024/01/05 03:41:22;;;;;;;0.20;0.20;;;;;;;5.51;87.93;98920.00;5097311;28;20040;-65
2024/01/05 03:43:51;;;;;;;0.40;0.40;;;;;;;5.51;87.79;98909.88;5095523;28;20151;-66
2024/01/05 03:46:20;;;;;;;0.77;0.77;;;;;;;5.57;87.34;98920.88;5097100;28;20131;-66
2024/01/05 03:48:48;;;;;;;0.40;0.40;;;;;;;5.54;87.58;98930.13;5096707;28;20285;-66
2024/01/05 03:51:19;;;;;;;0.82;0.82;;;;;;;5.53;87.23;98929.28;5096972;28;20040;-65
2024/01/05 03:53:48;;;;;;;0.43;0.43;;;;;;;5.49;87.44;98921.66;5096895;28;20090;-66
2024/01/05 03:56:17;;;;;;;0.25;0.25;;;;;;;5.54;87.35;98931.00;5097139;28;20089;-66
2024/01/05 03:58:46;;;;;;;0.40;0.40;;;;;;;5.57;87.35;98925.06;5096846;28;20036;-66
2024/01/05 04:01:15;;;;;;;0.40;0.40;;;;;;;5.55;87.49;98926.75;5096408;28;20280;-66
2024/01/05 04:03:44;;;;;;;0.40;0.40;;;;;;;5.57;87.64;98925.06;5096245;28;20052;-66
2024/01/05 04:06:21;;;;;;;0.30;0.30;;;;;;;5.60;87.40;98920.03;5095511;28;20028;-66
2024/01/05 04:08:51;;;;;;;0.25;0.25;;;;;;;5.60;87.43;98927.63;5096521;28;20391;-66
2024/01/05 04:11:21;;;;;;;0.30;0.30;;;;;;;5.60;87.12;98922.56;5096771;28;20040;-66
2024/01/05 04:13:49;;;;;;;0.43;0.43;;;;;;;5.60;87.32;98925.97;5095560;28;20040;-66
2024/01/05 04:16:18;;;;;;;0.70;0.70;;;;;;;5.61;87.20;98927.66;5096783;28;20486;-66
2024/01/05 04:18:47;;;;;;;0.40;0.40;;;;;;;5.56;87.17;98919.19;5096733;28;20139;-65
2024/01/05 04:21:16;;;;;;;0.70;0.70;;;;;;;5.45;86.75;98915.72;5096467;28;20047;-67
2024/01/05 04:23:46;;;;;;;0.37;0.37;;;;;;;5.37;87.69;98915.66;5096244;28;20063;-66
2024/01/05 04:26:15;;;;;;;0.65;0.65;;;;;;;5.32;87.27;98914.81;5096353;28;20319;-66
2024/01/05 04:28:44;;;;;;;2.15;1.48;;;;;;;5.25;87.56;98918.13;5096231;28;20059;-66
2024/01/05 04:31:13;;;;;;;0.40;0.40;;;;;;;5.22;87.37;98919.78;5096455;28;20032;-66
2024/01/05 04:33:42;;;;;;;0.50;0.50;;;;;;;5.08;87.18;98909.56;5096052;28;20093;-66
2024/01/05 04:36:15;;;;;;;0.95;0.95;;;;;;;5.10;87.01;98918.00;5096639;28;20036;-66
2024/01/05 04:38:46;;;;;;;0.50;0.50;;;;;;;4.78;87.19;98868.81;5096163;28;20056;-66
2024/01/05 04:41:17;;;;;;;0.47;0.47;;;;;;;4.87;87.11;98924.50;5096300;28;20046;-67
2024/01/05 04:43:46;;;;;;;0.40;0.40;;;;;;;4.73;87.18;98918.47;5095976;28;20555;-66
2024/01/05 04:46:15;;;;;;;0.50;0.50;;;;;;;4.64;87.72;98933.53;5095594;28;20040;-66
2024/01/05 04:48:43;;;;;;;0.60;0.60;;;;;;;4.63;87.32;98934.41;5095912;28;20036;-66
2024/01/05 04:51:13;;;;;;;0.38;0.38;;;;;;;4.71;87.46;98942.88;5095816;28;20050;-66
2024/01/05 04:53:42;;;;;;;0.55;0.55;;;;;;;4.69;87.19;98934.44;5095716;28;20063;-65
2024/01/05 04:56:12;;;;;;;0.50;0.50;;;;;;;4.65;87.28;98937.78;5095975;28;20505;-65
2024/01/05 04:58:41;;;;;;;0.40;0.40;;;;;;;4.53;87.07;98938.50;5095449;28;20040;-65
2024/01/05 05:01:10;;;;;;;0.47;0.47;;;;;;;4.43;87.09;98935.84;5095964;28;20032;-65
2024/01/05 05:03:39;;;;;;;0.30;0.30;;;;;;;4.34;86.97;98930.69;5095477;28;20044;-65
2024/01/05 05:06:08;;;;;;;0.30;0.30;;;;;;;4.28;87.12;98930.59;5094291;28;20048;-65
2024/01/05 05:08:37;;;;;;;0.40;0.40;;;;;;;4.19;87.08;98927.97;5095230;28;20513;-65
2024/01/05 05:11:06;;;;;;;0.30;0.30;;;;;;;4.10;87.00;98925.34;5095477;28;20512;-64
2024/01/05 05:13:37;;;;;;;0.32;0.32;;;;;;;4.02;86.92;98923.56;5094194;28;20044;-64
2024/01/05 05:16:06;;;;;;;0.40;0.40;;;;;;;3.94;87.35;98930.19;5095352;28;20032;-64
2024/01/05 05:18:35;;;;;;;0.32;0.32;;;;;;;3.91;87.20;98920.03;5095148;28;20032;-66
2024/01/05 05:21:05;;;;;;;4.22;1.02;;;;;;;3.92;87.48;98921.75;5095263;28;20086;-66
2024/01/05 05:23:34;;;;;;;0.40;0.40;;;;;;;3.93;87.21;98917.56;5094881;28;20071;-64
2024/01/05 05:26:03;;;;;;;0.50;0.50;;;;;;;3.94;87.63;98924.28;5093622;28;20044;-64
2024/01/05 05:28:32;;;;;;;0.50;0.50;;;;;;;3.92;87.54;98926.78;5094887;28;20401;-64
2024/01/05 05:31:03;;;;;;;0.47;0.47;;;;;;;3.92;87.56;98924.28;5093612;28;20044;-64
2024/01/05 05:33:32;;;;;;;0.55;0.55;;;;;;;3.87;87.07;98923.34;5093889;28;20047;-64
2024/01/05 05:36:01;;;;;;;0.60;0.60;;;;;;;3.84;87.45;98922.47;5094890;28;20040;-65
2024/01/05 05:38:30;;;;;;;0.60;0.60;;;;;;;3.79;87.50;98929.97;5094666;28;20432;-64
2024/01/05 05:40:58;;;;;;;1.33;1.23;;;;;;;3.80;87.41;98935.88;5093640;28;20093;-64
2024/01/05 05:43:27;;;;;;;0.63;0.63;;;;;;;3.75;87.29;98933.28;5094457;28;20040;-64
2024/01/05 05:45:56;;;;;;;0.40;0.40;;;;;;;3.70;87.44;98928.97;5094221;28;20047;-65
2024/01/05 05:48:27;;;;;;;0.60;0.60;;;;;;;3.68;87.68;98926.44;5094447;28;20044;-65
2024/01/05 05:50:56;;;;;;;0.70;0.70;;;;;;;3.63;87.38;98923.00;5094465;28;20048;-64
2024/01/05 05:53:24;;;;;;;0.60;0.60;;;;;;;3.54;87.74;98929.59;5094926;28;20479;-65
2024/01/05 05:55:53;;;;;;;0.75;0.75;;;;;;;3.62;87.64;98941.53;5094404;28;20046;-64
2024/01/05 05:58:23;;;;;;;0.50;0.50;;;;;;;3.61;88.00;98939.81;5094621;28;20039;-66
2024/01/05 06:00:51;;;;;;;0.50;0.50;;;;;;;3.65;87.64;98946.59;5094760;28;20032;-66
2024/01/05 06:03:22;;;;;;;0.60;0.60;;;;;;;3.62;88.30;98939.00;5093981;28;20506;-66
2024/01/05 06:05:53;;;;;;;0.88;0.88;;;;;;;3.60;87.77;98943.13;5094100;28;20055;-66
2024/01/05 06:08:22;;;;;;;0.50;0.50;;;;;;;3.53;87.90;98928.75;5093465;28;20080;-66
2024/01/05 06:10:51;;;;;;;0.50;0.50;;;;;;;3.52;88.01;98939.69;5093125;28;20036;-66
2024/01/05 06:13:20;;;;;;;0.50;0.50;;;;;;;3.53;87.92;98936.31;5094027;28;20379;-67
2024/01/05 06:15:49;;;;;;;1.85;1.33;;;;;;;3.51;88.13;98939.63;5094100;28;20128;-66
2024/01/05 06:18:18;;;;;;;0.50;0.50;;;;;;;3.44;88.38;98945.41;5094259;28;20043;-66
2024/01/05 06:20:47;;;;;;;0.63;0.63;;;;;;;3.42;88.55;98937.84;5093873;28;20044;-66
2024/01/05 06:23:17;;;;;;;1.35;1.25;;;;;;;3.42;88.02;98942.88;5094220;28;20055;-66
2024/01/05 06:25:46;;;;;;;0.57;0.57;;;;;;;3.39;88.43;98947.88;5093803;28;20055;-65
2024/01/05 06:28:15;;;;;;;0.40;0.40;;;;;;;3.34;88.38;98949.47;5094065;28;20044;-66
2024/01/05 06:30:44;;;;;;;0.70;0.70;;;;;;;3.34;88.21;98954.50;5094047;28;20273;-67
2024/01/05 06:33:13;;;;;;;1.42;1.33;;;;;;;3.03;88.34;98901.91;5093826;28;20486;-66
2024/01/05 06:35:42;;;;;;;0.50;0.50;;;;;;;3.31;88.86;98954.47;5094407;28;20405;-66
2024/01/05 06:38:11;;;;;;;0.50;0.50;;;;;;;3.25;88.06;98954.38;5092828;28;20040;-66
2024/01/05 06:40:41;;;;;;;0.50;0.50;;;;;;;3.26;88.79;98953.56;5093929;28;20036;-66
2024/01/05 06:43:10;;;;;;;0.90;0.90;;;;;;;3.29;88.28;98951.06;5093744;28;20066;-66
2024/01/05 06:45:39;;;;;;;0.57;0.57;;;;;;;3.31;88.71;98939.34;5093711;28;20047;-66
2024/01/05 06:48:13;;;;;;;0.50;0.50;;;;;;;3.25;87.81;98930.00;5093848;28;20046;-66
2024/01/05 06:50:42;;;;;;;0.40;0.40;;;;;;;3.21;88.77;98927.41;5094213;28;20528;-66
2024/01/05 06:53:11;;;;;;;0.40;0.40;;;;;;;3.17;88.11;98925.66;5094154;28;20529;-66
2024/01/05 06:55:42;;;;;;;0.98;0.98;;;;;;;3.12;88.69;98912.16;5093611;28;20046;-66
2024/01/05 06:58:10;;;;;;;0.38;0.38;;;;;;;3.12;88.56;98927.28;5095785;28;20071;-66
2024/01/05 07:00:39;;;;;;;0.40;0.40;;;;;;;3.07;88.12;98924.66;5098172;28;20047;-66
2024/01/05 07:03:09;;;;;;;0.60;0.60;;;;;;;3.07;88.15;98933.91;5100865;28;20142;-66
2024/01/05 07:05:40;;;;;;;0.93;0.90;;;;;;;3.07;88.65;98934.72;5118529;28;20162;-66
2024/01/05 07:08:09;;;;;;;0.40;0.40;;;;;;;3.14;88.51;98933.19;5118148;28;20127;-66
2024/01/05 07:10:39;;;;;;;0.50;0.50;;;;;;;3.24;88.75;98938.38;5117106;28;20059;-67
2024/01/05 07:13:09;;;;;;;0.60;0.60;;;;;;;3.34;88.64;98934.34;5117909;28;20054;-66
2024/01/05 07:15:37;;;;;;;0.70;0.70;;;;;;;3.44;88.57;98931.13;5118286;28;20047;-66
2024/01/05 07:18:07;;;;;;;0.93;0.93;;;;;;;3.59;89.02;98936.41;5118021;28;20035;-67
2024/01/05 07:20:37;;;;;;;0.70;0.70;;;;;;;3.60;88.41;98940.63;5118082;28;20497;-66
2024/01/05 07:23:05;;;;;;;1.40;1.27;;;;;;;3.69;89.08;98950.88;5117682;28;20044;-66
2024/01/05 07:25:35;;;;;;;2.40;1.75;;;;;;;3.79;88.66;98944.28;5117644;27;20031;-66
2024/01/05 07:28:08;;;;;;;3.42;1.85;;;;;;;4.07;88.99;98957.28;5118040;28;20031;-66
2024/01/05 07:30:37;;;;;;;0.88;0.88;;;;;;;4.24;88.77;98956.66;5117439;28;20050;-66
2024/01/05 07:33:27;;;;;;;0.73;0.73;;;;;;;4.40;88.77;98934.13;5102707;28;20051;-66
2024/01/05 07:35:56;;;;;;;33.47;2.70;;;;;;;4.55;88.86;98935.97;5117168;28;20040;-67
2024/01/05 07:38:25;;;;;;;1.67;1.58;;;;;;;4.75;88.81;98924.41;5117712;28;20070;-66
2024/01/05 07:40:54;;;;;;;1.40;1.30;;;;;;;4.85;88.65;98911.00;5118043;28;20034;-66
2024/01/05 07:43:25;;;;;;;1.10;1.00;;;;;;;4.81;88.23;98924.47;5116673;28;20047;-66
2024/01/05 07:45:54;;;;;;;3.05;2.33;;;;;;;4.63;87.56;98929.34;5116655;28;20127;-66
2024/01/05 07:48:23;;;;;;;2.47;2.27;;;;;;;4.58;87.36;98946.13;5117294;28;20115;-66
2024/01/05 07:50:52;;;;;;;2.40;2.20;;;;;;;4.54;87.75;98954.47;5117174;28;20329;-66
2024/01/05 07:53:21;;;;;;;3.75;1.98;;;;;;;4.53;87.30;98947.75;5117338;28;20028;-66
2024/01/05 07:55:50;;;;;;;1.93;1.77;;;;;;;4.44;87.22;98950.19;5116902;28;20051;-66
2024/01/05 07:58:18;;;;;;;2.15;1.58;;;;;;;4.39;86.93;98945.03;5116075;28;20272;-66
2024/01/05 08:00:49;;;;;;;1.70;1.63;;;;;;;4.33;87.02;98939.06;5117190;28;20050;-66
2024/01/05 08:03:19;;;;;;;1.35;1.25;;;;;;;4.34;87.01;98930.69;5116735;28;20059;-68
2024/01/05 08:05:48;;;;;;;3.10;2.85;;;;;;;4.38;87.34;98927.34;5116976;28;20046;-67
2024/01/05 08:08:17;;;;;;;0.80;0.80;;;;;;;4.43;87.04;98936.69;5116680;28;20542;-66
2024/01/05 08:10:46;;;;;;;1.42;1.33;;;;;;;4.43;86.91;98926.59;5116790;28;20044;-67
2024/01/05 08:13:15;;;;;;;0.95;0.95;;;;;;;4.43;87.38;98931.63;5116905;27;20051;-66
2024/01/05 08:15:44;;;;;;;2.87;2.07;;;;;;;4.54;87.42;98919.13;5117309;28;20370;-66
2024/01/05 08:18:18;;;;;;;1.08;1.00;;;;;;;4.62;87.73;98922.56;5113069;28;20082;-66
2024/01/05 08:20:48;;;;;;;2.42;2.25;;;;;;;4.70;87.49;98926.03;5099630;28;20036;-65
2024/01/05 08:23:18;;;;;;;2.50;2.30;;;;;;;4.82;87.60;98921.09;5096409;28;20047;-65
2024/01/05 08:25:48;;;;;;;1.40;1.13;;;;;;;5.01;87.87;98922.97;5096656;28;20062;-66
2024/01/05 08:28:17;;;;;;;1.33;1.23;;;;;;;5.21;87.90;98926.50;5096678;28;20452;-66
2024/01/05 08:30:46;;;;;;;1.27;1.17;;;;;;;5.42;88.01;98926.66;5096251;28;20474;-66
2024/01/05 08:33:14;;;;;;;1.73;1.63;;;;;;;5.55;87.81;98921.69;5096230;28;20134;-66
2024/01/05 08:35:45;;;;;;;1.15;1.13;;;;;;;5.61;87.85;98916.69;5096252;28;20083;-66
2024/01/05 08:38:14;;;;;;;1.05;1.02;;;;;;;5.68;87.69;98918.41;5096256;28;20549;-66
2024/01/05 08:40:44;;;;;;;0.93;0.93;;;;;;;5.72;87.24;98920.13;5109323;28;20823;-66
2024/01/05 08:43:13;;;;;;;1.75;1.63;;;;;;;5.70;87.17;98917.59;5113130;28;20036;-68
2024/01/05 08:45:42;;;;;;;3.17;2.75;;;;;;;5.73;86.96;98920.16;5114405;28;20047;-67
2024/01/05 08:48:18;;;;;;;17.02;3.70;;;;;;;5.72;86.62;98925.19;5115962;28;20504;-67
2024/01/05 08:50:48;;;;;;;0.90;0.90;;;;;;;5.73;86.57;98925.22;5116336;28;20401;-67
2024/01/05 08:53:20;;;;;;;1.70;1.38;;;;;;;5.78;86.47;98935.38;5116249;28;20159;-66
2024/01/05 08:55:49;;;;;;;1.42;1.33;;;;;;;5.81;85.71;98950.56;5116197;28;20393;-66
2024/01/05 08:58:18;;;;;;;1.53;1.37;;;;;;;5.83;85.96;98953.97;5116513;28;20027;-65
2024/01/05 09:00:47;;;;;;;0.47;0.47;;;;;;;5.87;86.02;98959.09;5114911;28;20039;-66
2024/01/05 09:03:21;;;;;;;2.42;2.13;;;;;;;5.94;85.25;98950.69;5115894;28;20058;-66
2024/01/05 09:05:51;;;;;;;2.05;1.67;;;;;;;5.97;85.41;98942.25;5115920;28;20135;-66
2024/01/05 09:08:20;;;;;;;2.80;2.35;;;;;;;6.04;85.71;98957.50;5114597;28;20062;-66
2024/01/05 09:10:49;;;;;;;1.38;1.27;;;;;;;6.07;85.43;98954.97;5115955;28;20077;-66
2024/01/05 09:13:18;;;;;;;3.60;2.50;;;;;;;6.20;85.23;98966.03;5115815;28;20044;-66
2024/01/05 09:15:47;;;;;;;1.48;1.33;;;;;;;6.27;85.06;98967.75;5116138;28;20428;-66
2024/01/05 09:18:17;;;;;;;1.08;1.08;;;;;;;6.32;84.78;98971.16;5115733;28;20035;-66
2024/01/05 09:20:46;;;;;;;1.40;1.30;;;;;;;6.38;84.78;98971.16;5115106;27;20035;-66
2024/01/05 09:23:16;;;;;;;0.70;0.70;;;;;;;6.40;85.15;98979.63;5114172;28;20043;-65
2024/01/05 09:25:45;;;;;;;1.63;1.52;;;;;;;6.47;84.80;98976.28;5115512;28;20039;-66
2024/01/05 09:28:14;;;;;;;1.15;1.13;;;;;;;6.58;85.16;98982.25;5115213;28;20040;-66
2024/01/05 09:30:43;;;;;;;0.90;0.90;;;;;;;6.57;84.52;98972.09;5115638;28;20070;-66
2024/01/05 09:33:12;;;;;;;4.82;2.00;;;;;;;6.61;84.47;98978.88;5115677;28;20542;-65
2024/01/05 09:35:41;;;;;;;1.80;1.70;;;;;;;6.62;84.27;98985.66;5115300;27;20551;-65
2024/01/05 09:38:31;;;;;;;0.37;0.37;;;;;;;6.62;84.48;98980.56;5115091;28;20537;-65
2024/01/05 09:41:20;;;;;;;0.38;0.38;;;;;;;6.75;84.56;98973.00;5114891;28;20101;-66
2024/01/05 09:44:11;;;;;;;1.17;1.13;;;;;;;6.94;83.91;98962.88;5114149;28;20054;-66
2024/01/05 09:47:00;;;;;;;5.05;2.22;;;;;;;7.11;84.06;98966.31;5114431;28;20048;-66
2024/01/05 09:49:50;;;;;;;0.70;0.70;;;;;;;7.33;83.97;98968.03;5114026;28;20501;-66
2024/01/05 09:52:40;;;;;;;1.10;1.00;;;;;;;7.57;83.20;98968.03;5114550;28;20126;-66
2024/01/05 09:55:30;;;;;;;1.90;0.95;;;;;;;7.73;82.71;98962.09;5114427;28;20109;-66
2024/01/05 09:58:19;;;;;;;1.30;1.20;;;;;;;7.79;82.83;98963.78;5113748;28;20044;-65
2024/01/05 10:01:16;;;;;;;2.05;1.10;;;;;;;7.84;82.44;98941.78;5113899;28;20079;-66
2024/01/05 10:04:08;;;;;;;0.40;0.40;;;;;;;8.00;81.28;98959.50;5099696;28;20078;-67
2024/01/05 10:07:01;;;;;;;1.88;0.95;;;;;;;8.18;80.88;98958.63;5114095;28;20040;-67
2024/01/05 10:09:54;;;;;;;0.65;0.65;;;;;;;8.26;79.58;98956.91;5099563;28;20092;-66
2024/01/05 10:12:44;;;;;;;0.70;0.65;;;;;;;8.37;79.28;98949.28;5114134;28;20052;-66
2024/01/05 10:15:33;;;;;;;0.50;0.50;;;;;;;8.45;78.64;98947.53;5114309;28;20096;-65
2024/01/05 10:18:22;;;;;;;0.30;0.30;;;;;;;8.54;77.88;98943.25;5113542;28;20075;-65
2024/01/05 10:21:14;;;;;;;0.50;0.50;;;;;;;8.62;78.50;98948.31;5113850;28;20047;-65
2024/01/05 10:24:03;;;;;;;0.40;0.40;;;;;;;8.66;78.10;98942.38;5113329;28;20055;-65
2024/01/05 10:27:04;;;;;;;0.57;0.57;;;;;;;8.65;77.75;98935.56;5099590;28;20055;-65
2024/01/05 10:29:57;;;;;;;0.30;0.30;;;;;;;8.50;76.50;98933.94;5114324;28;20047;-65
2024/01/05 10:32:46;;;;;;;0.40;0.40;;;;;;;8.35;76.66;98920.47;5113053;28;20047;-66
2024/01/05 10:35:35;;;;;;;0.38;0.38;;;;;;;8.30;76.43;98919.66;5113353;28;20122;-65
2024/01/05 10:38:24;;;;;;;0.60;0.60;;;;;;;8.25;77.13;98922.19;5113193;28;20101;-67
2024/01/05 10:41:13;;;;;;;0.40;0.40;;;;;;;8.28;76.23;98918.81;5113107;28;20118;-65
2024/01/05 10:44:04;;;;;;;1.13;0.95;;;;;;;8.31;76.32;98918.78;5113512;28;20352;-66
2024/01/05 10:46:54;;;;;;;0.57;0.57;;;;;;;8.48;76.06;98917.88;5113609;28;20043;-66
2024/01/05 10:49:48;;;;;;;1.30;1.13;;;;;;;8.51;76.16;98907.69;5113216;28;20050;-66
2024/01/05 10:52:38;;;;;;;0.40;0.40;;;;;;;8.52;75.45;98909.34;5113133;28;20062;-65
2024/01/05 10:55:29;;;;;;;0.73;0.73;;;;;;;8.53;75.15;98905.13;5113521;28;20097;-65
2024/01/05 10:58:18;;;;;;;0.40;0.40;;;;;;;8.53;nan;98894.94;5113105;28;20466;-65
2024/01/05 11:01:08;;;;;;;1.27;0.85;;;;;;;8.48;74.62;98892.44;5113245;28;20390;-65
2024/01/05 11:04:02;;;;;;;1.40;1.00;;;;;;;8.36;74.50;98896.72;5107849;28;20058;-66
2024/01/05 11:06:52;;;;;;;0.73;0.73;;;;;;;8.28;74.46;98893.41;5106714;28;20040;-66
2024/01/05 11:09:48;;;;;;;0.30;0.30;;;;;;;8.30;74.46;98894.22;5092827;28;20051;-65
2024/01/05 11:12:54;;;;;;;1.05;0.85;;;;;;;8.34;74.56;98889.13;5092979;28;20044;-66
2024/01/05 11:16:02;;;;;;;0.40;0.40;;;;;;;8.38;73.87;98879.75;5092369;28;20048;-67
2024/01/05 11:19:16;;;;;;;0.40;0.40;;;;;;;8.38;74.10;98870.44;5093028;28;20052;-66
2024/01/05 11:22:10;;;;;;;0.25;0.25;;;;;;;8.38;74.08;98864.50;5092636;28;20044;-66
2024/01/05 11:24:59;;;;;;;0.63;0.63;;;;;;;8.37;74.44;98862.84;5092639;28;20048;-66
2024/01/05 11:27:48;;;;;;;;;;;;;;;8.37;73.81;98847.59;5093089;28;20040;-66
2024/01/05 11:30:41;;;;;;;0.80;0.80;;;;;;;8.35;74.07;98839.13;5106790;28;19926;-65
2024/01/05 11:33:45;;;;;;;0.85;0.80;;;;;;;8.44;74.46;98834.84;5092229;28;20044;-66
2024/01/05 11:36:56;;;;;;;0.68;0.68;;;;;;;8.45;73.86;98825.47;5106595;28;20051;-66
2024/01/05 11:39:48;;;;;;;1.98;1.48;;;;;;;8.45;74.22;98815.31;5092547;28;20044;-65
2024/01/05 11:42:41;;;;;;;0.30;0.30;;;;;;;8.46;74.84;98814.47;5092969;28;20044;-66
2024/01/05 11:45:49;;;;;;;0.73;0.70;;;;;;;8.59;74.63;98811.00;5096033;28;20044;-66
2024/01/05 11:48:52;;;;;;;1.60;0.80;;;;;;;8.67;74.52;98806.69;5096278;28;20082;-66
2024/01/05 11:51:41;;;;;;;0.30;0.30;;;;;;;8.84;74.61;98799.78;5110250;28;20408;-66
2024/01/05 11:54:30;;;;;;;0.40;0.40;;;;;;;8.89;74.34;98803.13;5095791;28;20105;-66
2024/01/05 11:57:21;;;;;;;0.30;0.30;;;;;;;8.93;74.00;98798.84;5096404;28;20127;-66
2024/01/05 12:00:12;;;;;;;0.47;0.47;;;;;;;8.93;74.80;98788.66;5095594;28;20055;-65
2024/01/05 12:03:02;;;;;;;0.80;0.80;;;;;;;8.96;74.13;98784.41;5081148;28;20048;-66
2024/01/05 12:05:54;;;;;;;0.50;0.50;;;;;;;8.97;74.37;98770.84;5095706;28;20052;-66
2024/01/05 12:08:43;;;;;;;0.30;0.30;;;;;;;9.06;74.91;98775.84;5110239;28;20120;-65
2024/01/05 12:11:32;;;;;;;0.40;0.40;;;;;;;9.10;74.90;98772.41;5081530;28;20059;-65
2024/01/05 12:14:28;;;;;;;0.32;0.32;;;;;;;9.11;74.83;98768.16;5095715;28;20051;-65